Latest Coastal Weather Observations for Double Island Point

IDQ60701

Issued at 1:45 pm EST Saturday 29 November 2014 (issued every 10 minutes, with the page automatically refreshed every 10 minutes)

About coastal observations | Map of coastal stations | Coastal observations for QLD | Marine services | Other Formats
Station Details ID: 040068 Name: DOUBLE ISLAND POINT LIGHTHOUSE Lat: -25.93 Lon: 153.19 Height: 95.64 m
Data from the previous 72 hours. | See also: Recent months at Double Island Point
Date/Time
EST
Temp

°C
Wind Pressure Rain
since 9am
mm
Weather Cloud Vis
km
Sea
Height
m
Swell
Dir
 
Speed
knots
Gust
knots
hPa Trend Height
m
Period
s
Dir
29/01:30pm 23.5 ESE 19 25 1016.4 - 0.0 - - - - - - -
29/01:00pm 23.4 ESE 20 23 1016.7 - 0.0 - - - - - - -
29/12:30pm 24.5 ESE 20 25 1016.7 - 0.0 - - - - - - -
29/12:00pm 24.8 ESE 21 24 1016.9 - 0.0 - - - - - - -
29/11:30am 25.3 ESE 20 24 1017.1 - 0.0 - - - - - - -
29/11:00am 25.6 ESE 17 21 1017.3 - 0.0 - - - - - - -
29/10:30am 25.5 ESE 17 20 1017.7 - 0.0 - - - - - - -
29/10:00am 25.6 ESE 15 19 1017.8 - 0.0 - - - - - - -
29/09:30am 25.8 E 16 19 1018.0 - 0.0 - - - - - - -
29/09:00am 24.9 ESE 20 23 1017.8 - 1.4 - - - - - - -
29/08:30am 24.7 E 17 20 1017.8 - 1.4 - - - - - - -
29/08:00am 24.7 E 14 17 1017.7 - 1.4 - - - - - - -
29/07:30am 24.9 E 16 18 1017.6 - 1.4 - - - - - - -
29/07:00am 23.8 E 17 19 1017.3 - 1.4 - - - - - - -
29/06:30am 23.6 E 16 18 1016.9 - 1.4 - - - - - - -
29/06:00am 22.6 E 18 21 1016.7 - 1.4 - - - - - - -
29/05:30am 22.2 E 19 22 1016.4 - 1.4 - - - - - - -
29/05:00am 21.7 E 20 23 1016.0 - 1.4 - - - - - - -
29/04:30am 21.8 E 20 23 1015.9 - 1.4 - - - - - - -
29/04:00am 21.7 ESE 21 24 1015.8 - 1.4 - - - - - - -
29/03:30am 21.7 E 21 24 1015.4 - 1.4 - - - - - - -
29/03:00am 21.8 E 22 25 1015.4 - 1.4 - - - - - - -
29/02:30am 21.8 ESE 23 25 1015.6 - 1.4 - - - - - - -
29/02:00am 22.0 ESE 23 26 1015.7 - 1.4 - - - - - - -
29/01:30am 22.0 ESE 23 26 1015.9 - 1.4 - - - - - - -
29/01:00am 22.0 ESE 23 27 1016.0 - 1.4 - - - - - - -
29/12:30am 22.1 ESE 22 26 1016.2 - 1.4 - - - - - - -
29/12:00am 22.2 ESE 23 25 1016.7 - 1.4 - - - - - - -
 
Date/Time
EST
Temp

°C
Wind Pressure Rain
since 9am
mm
Weather Cloud Vis
km
Sea
Height
m
Swell
Dir
 
Speed
knots
Gust
knots
hPa Trend Height
m
Period
s
Dir
28/11:30pm 22.1 ESE 22 26 1017.3 - 1.4 - - - - - - -
28/11:00pm 22.3 ESE 20 24 1017.5 - 1.4 - - - - - - -
28/10:30pm 22.3 ESE 23 27 1017.5 - 1.4 - - - - - - -
28/10:00pm 22.4 ESE 24 28 1017.6 - 1.4 - - - - - - -
28/09:30pm 22.5 ESE 24 29 1017.7 - 1.4 - - - - - - -
28/09:00pm 22.5 ESE 26 31 1017.5 - 1.4 - - - - - - -
28/08:30pm 22.5 ESE 29 33 1017.2 - 1.4 - - - - - - -
28/08:00pm 22.5 ESE 28 32 1017.1 - 1.4 - - - - - - -
28/07:30pm 22.8 ESE 24 28 1016.8 - 1.4 - - - - - - -
28/07:00pm 22.6 ESE 24 28 1016.8 - 1.4 - - - - - - -
28/06:30pm 22.9 ESE 22 26 1016.7 - 1.4 - - - - - - -
28/06:00pm 23.0 ESE 21 24 1016.6 - 1.4 - - - - - - -
28/05:30pm 23.2 ESE 21 25 1016.5 - 1.4 - - - - - - -
28/05:00pm 23.4 ESE 20 24 1016.1 - 1.4 - - - - - - -
28/04:30pm 23.6 ESE 21 24 1015.9 - 1.4 - - - - - - -
28/04:00pm 23.9 ESE 19 25 1015.8 - 1.4 - - - - - - -
28/03:30pm 24.9 ESE 14 16 1016.2 - 1.4 - - - - - - -
28/03:00pm 23.8 ESE 15 17 1016.4 - 1.4 - - - - - - -
28/02:30pm 24.4 ESE 18 20 1016.1 - 1.4 - - - - - - -
28/02:00pm 23.5 ESE 20 23 1016.2 - 1.4 - - - - - - -
28/01:30pm 24.0 ESE 17 21 1016.6 - 1.4 - - - - - - -
28/01:00pm 22.9 E 18 21 1016.8 - 1.4 - - - - - - -
28/12:30pm 24.1 ESE 17 20 1017.2 - 1.4 - - - - - - -
28/12:00pm 23.2 ESE 15 17 1017.4 - 1.4 - - - - - - -
28/11:30am 22.6 ESE 18 22 1017.7 - 1.4 - - - - - - -
28/11:00am 23.1 SSE 16 19 1017.6 - 1.4 - - - - - - -
28/10:30am 21.8 S 13 16 1017.6 - 1.4 - - - - - - -
28/10:00am 21.1 S 13 19 1017.6 - 1.4 - - - - - - -
28/09:30am 20.9 S 11 13 1017.7 - 0.2 - - - - - - -
28/09:00am 21.1 S 10 12 1017.7 - 19.0 Rain - - - - - -
28/08:30am 19.8 NE 8 14 1017.5 - 18.0 - - - - - - -
28/08:00am 22.4 S 13 20 1016.9 - 0.8 - - - - - - -
28/07:30am 24.2 SSE 11 15 1017.0 - 0.8 - - - - - - -
28/07:00am 22.7 SSE 13 16 1016.8 - 0.8 - - - - - - -
28/06:30am 22.0 SSE 11 13 1016.5 - 0.8 - - - - - - -
28/06:00am 21.7 SSE 12 15 1016.1 - 0.8 Recent precip. - - - - - -
28/05:30am 22.2 ESE 13 16 1015.7 - 0.8 - - - - - - -
28/05:00am 21.8 ESE 11 13 1015.5 - 0.6 - - - - - - -
28/04:30am 21.9 SSE 13 14 1015.2 - 0.4 - - - - - - -
28/04:00am 22.5 E 13 15 1015.0 - 0.2 - - - - - - -
28/03:30am 22.2 E 9 13 1014.7 - 0.2 - - - - - - -
28/03:00am 23.1 E 10 12 1014.6 - 0.0 - - - - - - -
28/02:30am 23.0 E 12 13 1014.8 - 0.0 - - - - - - -
28/02:00am 23.0 E 12 14 1014.4 - 0.0 - - - - - - -
28/01:30am 23.0 E 10 12 1015.0 - 0.0 - - - - - - -
28/01:00am 23.2 E 12 15 1015.1 - 0.0 - - - - - - -
28/12:30am 23.2 E 11 12 1015.2 - 0.0 - - - - - - -
28/12:00am 23.2 E 9 12 1015.5 - 0.0 - - - - - - -
 
Date/Time
EST
Temp

°C
Wind Pressure Rain
since 9am
mm
Weather Cloud Vis
km
Sea
Height
m
Swell
Dir
 
Speed
knots
Gust
knots
hPa Trend Height
m
Period
s
Dir
27/11:30pm 23.5 E 11 13 1015.8 - 0.0 - - - - - - -
27/11:00pm 23.7 ENE 10 13 1016.1 - 0.0 - - - - - - -
27/10:30pm 23.5 E 9 10 1016.6 - 0.0 - - - - - - -
27/10:00pm 23.5 E 12 15 1016.5 - 0.0 - - - - - - -
27/09:30pm 23.6 ENE 13 15 1016.2 - 0.0 - - - - - - -
27/09:00pm 23.7 E 16 19 1016.2 - 0.0 - - - - - - -
27/08:30pm 23.7 E 14 16 1016.1 - 0.0 - - - - - - -
27/08:00pm 23.9 E 14 17 1015.8 - 0.0 - - - - - - -
27/07:30pm 23.8 ENE 14 17 1015.3 - 0.0 - - - - - - -
27/07:00pm 23.9 ENE 14 17 1014.8 - 0.0 - - - - - - -
27/06:30pm 24.0 ENE 14 17 1014.7 - 0.0 - - - - - - -
27/06:00pm 24.2 ENE 10 14 1014.5 - 0.0 - - - - - - -
27/05:30pm 24.9 NE 11 16 1013.7 - 0.0 - - - - - - -
27/05:00pm 26.0 NE 9 13 1013.0 - 0.0 - - - - - - -
27/04:30pm 26.3 NE 9 13 1012.8 - 0.0 - - - - - - -
27/04:00pm 26.4 NE 9 13 1012.9 - 0.0 - - - - - - -
27/03:30pm 26.6 NE 9 12 1013.1 - 0.0 - - - - - - -
27/03:00pm 27.0 ENE 10 13 1013.1 - 0.0 - - - - - - -
27/02:30pm 27.4 NE 9 12 1013.5 - 0.0 - - - - - - -
27/02:00pm 27.8 ENE 9 13 1013.8 - 0.0 - - - - - - -
27/01:30pm 27.9 ENE 9 12 1014.0 - 0.0 - - - - - - -
27/01:00pm 28.6 ENE 8 11 1014.3 - 0.0 - - - - - - -
27/12:30pm 29.5 ENE 8 11 1014.7 - 0.0 - - - - - - -
27/12:00pm 30.7 NE 5 8 1014.9 - 0.0 - - - - - - -
27/11:30am 29.5 ENE 6 8 1015.3 - 0.0 - - - - - - -
27/11:00am 30.4 NE 6 8 1015.4 - 0.0 - - - - - - -
27/10:30am 29.9 NE 6 7 1015.8 - 0.0 - - - - - - -
27/10:00am 29.5 NNE 5 7 1016.0 - 0.0 - - - - - - -
27/09:30am 28.0 N 4 7 1016.2 - 0.0 - - - - - - -
27/09:00am 27.3 N 4 5 1016.2 - 0.0 - - - - - - -
27/08:30am 26.7 N 3 5 1016.7 - 0.0 - - - - - - -
27/08:00am 26.8 N 4 6 1016.7 - 0.0 - - - - - - -
27/07:30am 26.9 N 5 8 1016.6 - 0.0 - - - - - - -
27/07:00am 25.6 N 4 7 1016.4 - 0.0 - - - - - - -
27/06:30am 23.9 NNE 7 9 1016.1 - 0.0 - - - - - - -
27/06:00am 23.7 NNE 10 13 1015.7 - 0.0 - - - - - - -
27/05:30am 22.8 N 9 12 1015.4 - 0.0 - - - - - - -
27/05:00am 22.7 NNE 8 11 1015.3 - 0.0 - - - - - - -
27/04:30am 22.8 NNE 10 12 1015.0 - 0.0 - - - - - - -
27/04:00am 22.7 N 9 12 1014.7 - 0.0 - - - - - - -
27/03:30am 22.7 NNE 12 15 1014.5 - 0.0 - - - - - - -
27/03:00am 22.8 NNE 14 17 1014.3 - 0.0 - - - - - - -
27/02:30am 22.8 NNE 14 16 1014.3 - 0.0 - - - - - - -
27/02:00am 22.8 NNE 12 15 1014.6 - 0.0 - - - - - - -
27/01:30am 22.8 NNE 13 16 1014.7 - 0.0 - - - - - - -
27/01:00am 23.0 NNE 11 14 1015.4 - 0.0 - - - - - - -
27/12:30am 23.1 NE 7 11 1015.6 - 0.0 - - - - - - -
27/12:00am 23.2 NE 7 12 1015.9 - 0.0 - - - - - - -
 
Date/Time
EST
Temp

°C
Wind Pressure Rain
since 9am
mm
Weather Cloud Vis
km
Sea
Height
m
Swell
Dir
 
Speed
knots
Gust
knots
hPa Trend Height
m
Period
s
Dir
26/11:30pm 23.2 NE 7 10 1016.5 - 0.0 - - - - - - -
26/11:00pm 23.3 NE 6 9 1016.9 - 0.0 - - - - - - -
26/10:30pm 23.2 NE 9 11 1017.0 - 0.0 - - - - - - -
26/10:00pm 23.4 ENE 9 11 1017.0 - 0.0 - - - - - - -
26/09:30pm 23.4 ENE 11 15 1016.9 - 0.0 - - - - - - -
26/09:00pm 23.5 ENE 13 16 1016.7 - 0.0 - - - - - - -
26/08:30pm 23.6 ENE 13 15 1016.5 - 0.0 - - - - - - -
26/08:00pm 23.7 ENE 11 15 1016.4 - 0.0 - - - - - - -
26/07:30pm 23.8 ENE 12 15 1016.1 - 0.0 - - - - - - -
26/07:00pm 23.9 ENE 13 16 1015.9 - 0.0 - - - - - - -
26/06:30pm 24.0 ENE 13 16 1015.6 - 0.0 - - - - - - -
26/06:00pm 24.3 ENE 11 13 1015.8 - 0.0 - - - - - - -
26/05:30pm 24.5 ENE 11 13 1015.5 - 0.0 - - - - - - -
26/05:00pm 25.5 ENE 10 14 1015.0 - 0.0 - - - - - - -
26/04:30pm 25.8 ENE 11 14 1014.7 - 0.0 - - - - - - -
26/04:00pm 25.3 ENE 13 16 1014.4 - 0.0 - - - - - - -
26/03:30pm 25.7 ENE 13 16 1014.4 - 0.0 - - - - - - -
26/03:00pm 26.5 ENE 13 17 1014.5 - 0.0 - - - - - - -
26/02:30pm 27.8 ENE 13 16 1014.8 - 0.0 - - - - - - -
26/02:00pm 27.1 ENE 11 13 1015.0 - 0.0 - - - - - - -

Other Formats:

Comma delimited format used in spreadsheet applications
http://www.bom.gov.au/fwo/IDQ60701/IDQ60701.94584.axf

JavaScript Object Notation format (JSON) in row-major order
http://www.bom.gov.au/fwo/IDQ60701/IDQ60701.94584.json